Ponca, Nebraska
Current Conditions -  °F | °C
As of 8:52 PM on Sunday 21 Dec 2014 (Local Time) from KSUX Reporting Station
Haze Haze  
Wind Chill: 35°   Ceiling: 800
Heat Index: 41°   Visibility: 6mi
Dew Point: 39°   Wind: 9mph
Humidity: 93%   Direction: 150°SSE
Pressure: 29.62"   Gusts: NA
Location:  42.56°N, 96.71°W
Report Text: KSUX 220252Z 15008KT 6SM BR OVC008 05/04 A2962 RMK AO2 CIG 007V011 SLP038 60000 T00500039 58012
Loading
Personal Weather Stations






























Interactive Weather Map New forecast layout! Learn more

10-Day Weather Forecast

Advertisements
Track Severe Weather on mobile